createdAt,value
2019-05-09T00:01:26.701Z,9.40
2019-05-09T00:03:56.139Z,9.50
2019-05-09T00:06:25.547Z,9.50
2019-05-09T00:08:54.983Z,9.50
2019-05-09T00:11:24.750Z,9.50
2019-05-09T00:13:54.753Z,9.40
2019-05-09T00:16:24.371Z,9.40
2019-05-09T00:18:54.258Z,9.40
2019-05-09T00:21:25.454Z,9.40
2019-05-09T00:23:54.878Z,9.40
2019-05-09T00:26:24.286Z,9.30
2019-05-09T00:28:55.382Z,9.40
2019-05-09T00:31:41.241Z,9.40
2019-05-09T00:34:15.302Z,9.30
2019-05-09T00:36:44.705Z,9.30
2019-05-09T00:39:14.104Z,9.30
2019-05-09T00:41:43.631Z,9.30
2019-05-09T00:44:17.506Z,9.30
2019-05-09T00:46:48.594Z,9.30
2019-05-09T00:49:23.572Z,9.30
2019-05-09T00:51:54.085Z,9.30
2019-05-09T00:54:24.137Z,9.30
2019-05-09T00:56:54.106Z,9.30
2019-05-09T00:59:24.113Z,9.40
2019-05-09T01:01:54.336Z,9.40
2019-05-09T01:04:24.291Z,9.30
2019-05-09T01:06:54.149Z,9.30
2019-05-09T01:09:24.280Z,9.30
2019-05-09T01:11:53.771Z,9.20
2019-05-09T01:14:23.619Z,9.20
2019-05-09T01:16:53.639Z,9.10
2019-05-09T01:19:23.437Z,9.10
2019-05-09T01:21:54.212Z,9.10
2019-05-09T01:24:23.750Z,9.10
2019-05-09T01:26:54.177Z,9.10
2019-05-09T01:29:23.904Z,9.10
2019-05-09T01:31:54.916Z,9.00
2019-05-09T01:34:25.988Z,9.00
2019-05-09T01:37:05.386Z,9.00
2019-05-09T01:39:54.184Z,9.00
2019-05-09T01:42:23.569Z,9.00
2019-05-09T01:44:53.382Z,9.00
2019-05-09T01:47:23.534Z,9.00
2019-05-09T01:49:53.851Z,9.00
2019-05-09T01:52:23.289Z,9.00
2019-05-09T01:54:54.151Z,9.00
2019-05-09T01:57:23.703Z,9.10
2019-05-09T01:59:53.296Z,9.00
2019-05-09T02:02:23.516Z,9.10
2019-05-09T02:04:53.420Z,9.00
2019-05-09T02:07:23.807Z,9.00
2019-05-09T02:09:53.971Z,8.90
2019-05-09T02:12:24.604Z,8.90
2019-05-09T02:14:55.733Z,8.90
2019-05-09T02:17:29.795Z,8.90
2019-05-09T02:19:59.199Z,8.90
2019-05-09T02:22:35.374Z,8.90
2019-05-09T02:25:09.426Z,8.90
2019-05-09T02:27:38.871Z,8.90
2019-05-09T02:30:14.634Z,8.90
2019-05-09T02:32:44.745Z,8.80
2019-05-09T02:35:15.033Z,8.80
2019-05-09T02:37:44.432Z,8.80
2019-05-09T02:40:14.606Z,8.80
2019-05-09T02:42:44.272Z,8.80
2019-05-09T02:45:14.077Z,8.80
2019-05-09T02:47:43.507Z,8.70
2019-05-09T02:50:13.709Z,8.70
2019-05-09T02:52:43.234Z,8.70
2019-05-09T02:55:12.846Z,8.70
2019-05-09T02:57:42.683Z,8.70
2019-05-09T03:00:20.288Z,8.70
2019-05-09T03:02:51.578Z,8.70
2019-05-09T03:05:21.011Z,8.70
2019-05-09T03:07:50.627Z,8.60
2019-05-09T03:10:22.246Z,8.60
2019-05-09T03:13:11.068Z,8.60
2019-05-09T03:15:41.039Z,8.60
2019-05-09T03:18:10.462Z,8.60
2019-05-09T03:20:49.204Z,8.60
2019-05-09T03:23:19.306Z,8.50
2019-05-09T03:25:48.973Z,8.50
2019-05-09T03:28:20.050Z,8.50
2019-05-09T03:30:59.905Z,8.40
2019-05-09T03:33:34.983Z,8.40
2019-05-09T03:36:00.535Z,8.40
2019-05-09T03:38:30.004Z,8.40
2019-05-09T03:40:59.437Z,8.40
2019-05-09T03:43:28.907Z,8.50
2019-05-09T03:46:07.798Z,8.50
2019-05-09T03:48:38.589Z,8.50
2019-05-09T03:51:08.246Z,8.40
2019-05-09T03:53:38.034Z,8.40
2019-05-09T03:56:09.208Z,8.40
2019-05-09T03:58:38.765Z,8.30
2019-05-09T04:01:10.673Z,8.30
2019-05-09T04:03:39.306Z,8.30
2019-05-09T04:06:08.733Z,8.30
2019-05-09T04:08:38.138Z,8.30
2019-05-09T04:11:08.620Z,8.30
2019-05-09T04:13:39.989Z,8.30
2019-05-09T04:16:09.403Z,8.30
2019-05-09T04:18:40.318Z,8.30
2019-05-09T04:21:09.843Z,8.30
2019-05-09T04:23:39.542Z,8.30
2019-05-09T04:26:27.674Z,8.30
2019-05-09T04:28:57.760Z,8.30
2019-05-09T04:31:28.094Z,8.40
2019-05-09T04:33:57.666Z,8.40
2019-05-09T04:36:38.925Z,8.40
2019-05-09T04:39:20.871Z,8.40
2019-05-09T04:41:45.223Z,8.40
2019-05-09T04:44:21.650Z,8.50
2019-05-09T04:46:54.117Z,8.50
2019-05-09T04:49:21.621Z,8.50
2019-05-09T04:51:51.017Z,8.50
2019-05-09T04:54:20.579Z,8.50
2019-05-09T04:57:09.370Z,8.50
2019-05-09T04:59:38.801Z,8.50
2019-05-09T05:02:12.946Z,8.40
2019-05-09T05:04:42.632Z,8.40
2019-05-09T05:07:12.491Z,8.40
2019-05-09T05:09:59.201Z,8.40
2019-05-09T05:12:28.632Z,8.40
2019-05-09T05:14:58.212Z,8.40
2019-05-09T05:17:30.235Z,8.50
2019-05-09T05:19:59.728Z,8.50
2019-05-09T05:22:30.803Z,8.50
2019-05-09T05:25:01.927Z,8.60
2019-05-09T05:27:31.379Z,8.60
2019-05-09T05:30:01.141Z,8.70
2019-05-09T05:32:41.008Z,8.80
2019-05-09T05:35:21.505Z,9.00
2019-05-09T05:37:51.008Z,9.10
2019-05-09T05:40:20.865Z,9.30
2019-05-09T05:42:50.301Z,9.40
2019-05-09T05:45:20.066Z,9.50
2019-05-09T05:47:51.101Z,9.70
2019-05-09T05:50:20.578Z,9.80
2019-05-09T05:52:50.054Z,9.80
2019-05-09T05:55:19.457Z,9.90
2019-05-09T05:57:48.894Z,9.90
2019-05-09T06:00:20.628Z,9.90
2019-05-09T06:02:50.084Z,9.90
2019-05-09T06:05:19.565Z,10.00
2019-05-09T06:07:49.031Z,10.00
2019-05-09T06:10:18.897Z,10.10
2019-05-09T06:12:48.477Z,10.10
2019-05-09T06:15:18.534Z,10.30
2019-05-09T06:17:48.560Z,10.40
2019-05-09T06:20:18.341Z,10.50
2019-05-09T06:22:47.891Z,10.60
2019-05-09T06:25:20.788Z,10.70
2019-05-09T06:27:50.400Z,10.80
2019-05-09T06:30:29.320Z,10.90
2019-05-09T06:32:59.927Z,11.00
2019-05-09T06:35:29.575Z,11.20
2019-05-09T06:37:59.195Z,11.40
2019-05-09T06:40:29.112Z,11.40
2019-05-09T06:42:59.954Z,11.50
2019-05-09T06:45:43.636Z,11.70
2019-05-09T06:48:14.454Z,11.80
2019-05-09T06:50:43.971Z,11.90
2019-05-09T06:53:13.379Z,11.90
2019-05-09T06:55:42.820Z,11.90
2019-05-09T06:58:30.280Z,12.00
2019-05-09T07:01:18.344Z,12.00
2019-05-09T07:03:57.388Z,12.00
2019-05-09T07:06:28.399Z,11.90
2019-05-09T07:09:02.168Z,11.90
2019-05-09T07:11:31.595Z,11.90
2019-05-09T07:14:01.049Z,11.90
2019-05-09T07:16:30.437Z,11.80
2019-05-09T07:18:59.842Z,11.70
2019-05-09T07:21:48.492Z,11.70
2019-05-09T07:24:18.787Z,11.70
2019-05-09T07:26:48.188Z,11.70
2019-05-09T07:29:18.000Z,11.70
2019-05-09T07:31:49.485Z,11.80
2019-05-09T07:34:20.601Z,12.00
2019-05-09T07:36:50.006Z,12.20
2019-05-09T07:39:19.432Z,12.90
2019-05-09T07:41:48.867Z,13.40
2019-05-09T07:44:18.479Z,13.50
2019-05-09T07:46:58.460Z,13.40
2019-05-09T07:49:28.438Z,13.40
2019-05-09T07:52:00.352Z,13.30
2019-05-09T07:54:29.524Z,13.10
2019-05-09T07:56:58.982Z,13.10
2019-05-09T07:59:28.416Z,13.20
2019-05-09T08:01:58.365Z,13.30
2019-05-09T08:04:28.637Z,13.20
2019-05-09T08:06:58.260Z,13.30
2019-05-09T08:09:28.302Z,13.50
2019-05-09T08:11:58.910Z,13.60
2019-05-09T08:15:06.745Z,13.70
2019-05-09T08:17:19.075Z,13.80
2019-05-09T08:19:48.617Z,13.70
2019-05-09T08:22:21.254Z,13.60
2019-05-09T08:24:49.674Z,13.40
2019-05-09T08:27:19.074Z,13.40
2019-05-09T08:29:48.506Z,13.50
2019-05-09T08:32:18.274Z,13.50
2019-05-09T08:34:48.318Z,13.60
2019-05-09T08:37:17.802Z,13.60
2019-05-09T08:39:48.496Z,13.50
2019-05-09T08:42:20.050Z,13.30
2019-05-09T08:44:49.202Z,13.20
2019-05-09T08:47:18.649Z,13.20
2019-05-09T08:49:55.536Z,13.20
2019-05-09T08:52:24.984Z,13.20
2019-05-09T08:54:57.825Z,13.40
2019-05-09T08:57:28.876Z,13.50
2019-05-09T08:59:59.187Z,13.60
2019-05-09T09:02:28.723Z,13.90
2019-05-09T09:05:00.310Z,14.00
2019-05-09T09:07:29.963Z,14.10
2019-05-09T09:10:01.318Z,14.00
2019-05-09T09:12:34.388Z,14.00
2019-05-09T09:15:01.995Z,14.10
2019-05-09T09:17:31.525Z,14.40
2019-05-09T09:20:00.962Z,14.50
2019-05-09T09:22:30.486Z,14.50
2019-05-09T09:24:59.894Z,14.60
2019-05-09T09:27:30.918Z,14.40
2019-05-09T09:30:16.153Z,14.30
2019-05-09T09:32:31.505Z,14.30
2019-05-09T09:35:00.929Z,14.50
2019-05-09T09:37:45.022Z,14.70
2019-05-09T09:40:01.959Z,15.10
2019-05-09T09:42:31.406Z,15.10
2019-05-09T09:45:01.112Z,15.20
2019-05-09T09:47:30.541Z,15.20
2019-05-09T09:50:02.268Z,15.00
2019-05-09T09:52:34.292Z,15.00
2019-05-09T09:55:02.897Z,15.00
2019-05-09T09:57:32.309Z,14.90
2019-05-09T10:00:03.458Z,14.90
2019-05-09T10:02:37.816Z,15.10
2019-05-09T10:05:08.239Z,15.00
2019-05-09T10:07:38.458Z,14.90
2019-05-09T10:10:08.759Z,15.00
2019-05-09T10:12:44.492Z,15.00
2019-05-09T10:15:13.805Z,14.90
2019-05-09T10:17:53.837Z,15.10
2019-05-09T10:20:25.207Z,15.00
2019-05-09T10:22:59.603Z,14.80
2019-05-09T10:25:27.623Z,14.90
2019-05-09T10:27:57.137Z,15.00
2019-05-09T10:30:34.917Z,15.10
2019-05-09T10:33:04.910Z,14.90
2019-05-09T10:35:34.317Z,14.80
2019-05-09T10:38:03.821Z,14.90
2019-05-09T10:40:33.230Z,15.20
2019-05-09T10:43:04.347Z,15.70
2019-05-09T10:45:40.811Z,15.90
2019-05-09T10:48:09.079Z,15.90
2019-05-09T10:50:44.404Z,16.00
2019-05-09T10:53:09.770Z,15.70
2019-05-09T10:55:40.928Z,15.40
2019-05-09T10:58:10.671Z,15.20
2019-05-09T11:00:40.168Z,15.10
2019-05-09T11:03:09.611Z,15.20
2019-05-09T11:05:39.039Z,15.70
2019-05-09T11:08:08.505Z,16.30
2019-05-09T11:10:39.991Z,16.40
2019-05-09T11:13:09.514Z,16.30
2019-05-09T11:15:39.076Z,16.20
2019-05-09T11:18:08.839Z,16.50
2019-05-09T11:20:38.358Z,17.00
2019-05-09T11:23:08.240Z,16.90
2019-05-09T11:25:38.171Z,16.60
2019-05-09T11:28:12.682Z,16.50
2019-05-09T11:30:58.491Z,16.40
2019-05-09T11:33:28.095Z,16.20
2019-05-09T11:35:58.101Z,16.40
2019-05-09T11:38:34.968Z,16.80
2019-05-09T11:40:59.364Z,17.30
2019-05-09T11:43:29.862Z,17.70
2019-05-09T11:45:59.592Z,17.80
2019-05-09T11:48:29.152Z,18.00
2019-05-09T11:50:59.066Z,18.40
2019-05-09T11:53:29.003Z,18.50
2019-05-09T11:55:58.398Z,18.50
2019-05-09T11:58:28.074Z,18.10
2019-05-09T12:01:01.738Z,17.90
2019-05-09T12:03:29.187Z,17.70
2019-05-09T12:05:58.597Z,17.40
2019-05-09T12:08:28.051Z,17.10
2019-05-09T12:10:57.905Z,17.10
2019-05-09T12:13:27.493Z,17.30
2019-05-09T12:15:58.410Z,17.20
2019-05-09T12:18:28.677Z,17.10
2019-05-09T12:20:58.179Z,16.90
2019-05-09T12:23:29.274Z,16.90
2019-05-09T12:25:58.692Z,16.70
2019-05-09T12:28:28.129Z,16.70
2019-05-09T12:30:57.580Z,16.90
2019-05-09T12:33:28.426Z,17.10
2019-05-09T12:35:59.213Z,17.20
2019-05-09T12:38:28.895Z,17.70
2019-05-09T12:41:00.535Z,17.50
2019-05-09T12:43:29.462Z,18.10
2019-05-09T12:45:58.882Z,18.30
2019-05-09T12:48:28.292Z,18.20
2019-05-09T12:50:58.520Z,18.20
2019-05-09T12:53:28.583Z,18.10
2019-05-09T12:55:59.667Z,18.20
2019-05-09T12:58:29.741Z,18.20
2019-05-09T13:01:00.053Z,17.80
2019-05-09T13:03:30.017Z,17.50
2019-05-09T13:05:59.658Z,16.90
2019-05-09T13:12:14.741Z,16.00
2019-05-09T13:14:44.621Z,16.00
2019-05-09T13:17:18.341Z,16.30
2019-05-09T13:19:49.418Z,16.60
2019-05-09T13:22:18.856Z,17.10
2019-05-09T13:24:48.242Z,17.50
2019-05-09T13:27:18.977Z,17.90
2019-05-09T13:29:49.324Z,18.20
2019-05-09T13:32:19.187Z,18.30
2019-05-09T13:34:48.866Z,18.60
2019-05-09T13:37:19.003Z,18.60
2019-05-09T13:39:48.577Z,18.90
2019-05-09T13:42:19.469Z,18.90
2019-05-09T13:44:49.350Z,18.60
2019-05-09T13:47:18.772Z,18.30
2019-05-09T13:49:48.517Z,18.10
2019-05-09T13:52:18.188Z,17.70
2019-05-09T13:58:23.105Z,16.50
2019-05-09T14:00:58.972Z,16.20
2019-05-09T14:03:23.904Z,16.10
2019-05-09T14:05:53.426Z,15.90
2019-05-09T14:08:22.832Z,15.70
2019-05-09T14:10:52.620Z,15.50
2019-05-09T14:13:23.519Z,15.40
2019-05-09T14:15:53.182Z,15.20
2019-05-09T14:18:22.688Z,14.90
2019-05-09T14:20:52.106Z,14.30
2019-05-09T14:23:21.554Z,13.90
2019-05-09T14:25:51.974Z,13.80
2019-05-09T14:28:22.039Z,13.80
2019-05-09T14:30:51.485Z,14.10
2019-05-09T14:33:20.961Z,13.90
2019-05-09T14:35:50.425Z,14.00
2019-05-09T14:38:19.895Z,14.20
2019-05-09T14:40:49.329Z,14.30
2019-05-09T14:43:18.753Z,14.30
2019-05-09T14:45:48.434Z,14.40
2019-05-09T14:48:18.968Z,14.40
2019-05-09T14:50:49.543Z,14.30
2019-05-09T14:53:19.133Z,14.20
2019-05-09T14:55:48.574Z,14.10
2019-05-09T14:58:19.965Z,14.00
2019-05-09T15:00:49.464Z,14.00
2019-05-09T15:03:19.265Z,14.10
2019-05-09T15:05:48.730Z,14.20
2019-05-09T15:08:19.774Z,14.30
2019-05-09T15:10:49.506Z,14.30
2019-05-09T15:13:18.940Z,14.30
2019-05-09T15:15:48.439Z,14.30
2019-05-09T15:18:17.940Z,14.40
2019-05-09T15:20:47.919Z,14.40
2019-05-09T15:23:19.687Z,14.40
2019-05-09T15:25:48.711Z,14.50
2019-05-09T15:28:18.143Z,14.40
2019-05-09T15:30:48.882Z,14.50
2019-05-09T15:33:18.556Z,14.40
2019-05-09T15:35:48.729Z,14.40
2019-05-09T15:38:22.161Z,14.20
2019-05-09T15:40:49.872Z,14.00
2019-05-09T15:43:19.314Z,14.00
2019-05-09T15:45:50.652Z,14.00
2019-05-09T15:48:20.127Z,14.00
2019-05-09T15:50:49.583Z,14.10
2019-05-09T15:53:19.272Z,14.20
2019-05-09T15:55:48.728Z,14.20
2019-05-09T15:58:19.056Z,14.20
2019-05-09T16:00:48.705Z,14.10
2019-05-09T16:03:18.758Z,14.10
2019-05-09T16:05:48.336Z,14.10
2019-05-09T16:08:18.566Z,14.00
2019-05-09T16:10:48.282Z,13.90
2019-05-09T16:13:17.889Z,13.90
2019-05-09T16:15:48.638Z,13.80
2019-05-09T16:18:18.293Z,13.80
2019-05-09T16:20:48.756Z,13.80
2019-05-09T16:23:18.700Z,13.70
2019-05-09T16:25:48.179Z,13.70
2019-05-09T16:28:18.549Z,13.70
2019-05-09T16:30:48.390Z,13.70
2019-05-09T16:33:18.346Z,13.70
2019-05-09T16:35:49.498Z,13.70
2019-05-09T16:38:19.112Z,13.70
2019-05-09T16:40:48.638Z,13.70
2019-05-09T16:43:18.099Z,13.70
2019-05-09T16:45:48.171Z,13.60
2019-05-09T16:48:18.482Z,13.60
2019-05-09T16:51:00.399Z,13.60
2019-05-09T16:53:19.581Z,13.60
2019-05-09T16:55:49.385Z,13.60
2019-05-09T16:58:19.088Z,13.60
2019-05-09T17:00:53.274Z,13.60
2019-05-09T17:03:22.788Z,13.60
2019-05-09T17:05:52.220Z,13.60
2019-05-09T17:08:21.936Z,13.60
2019-05-09T17:10:51.428Z,13.60
2019-05-09T17:13:20.944Z,13.60
2019-05-09T17:15:50.637Z,13.70
2019-05-09T17:18:20.153Z,13.60
2019-05-09T17:20:51.383Z,13.60
2019-05-09T17:23:29.353Z,13.60
2019-05-09T17:25:57.856Z,13.60
2019-05-09T17:28:28.479Z,13.60
2019-05-09T17:30:58.212Z,13.50
2019-05-09T17:33:28.689Z,13.50
2019-05-09T17:35:58.609Z,13.50
2019-05-09T17:38:28.144Z,13.40
2019-05-09T17:40:57.902Z,13.40
2019-05-09T17:43:27.974Z,13.40
2019-05-09T17:45:58.654Z,13.40
2019-05-09T17:48:28.820Z,13.30
2019-05-09T17:50:58.724Z,13.30
2019-05-09T17:53:30.004Z,13.30
2019-05-09T17:55:59.952Z,13.30
2019-05-09T17:58:33.281Z,13.20
2019-05-09T18:01:00.615Z,13.10
2019-05-09T18:03:30.053Z,13.10
2019-05-09T18:05:59.507Z,13.10
2019-05-09T18:08:29.023Z,13.10
2019-05-09T18:10:58.595Z,13.00
2019-05-09T18:13:30.706Z,13.00
2019-05-09T18:15:59.415Z,13.00
2019-05-09T18:18:28.934Z,12.90
2019-05-09T18:20:58.441Z,12.90
2019-05-09T18:23:28.452Z,12.90
2019-05-09T18:25:58.731Z,12.80
2019-05-09T18:28:29.305Z,12.80
2019-05-09T18:30:59.082Z,12.80
2019-05-09T18:33:30.213Z,12.80
2019-05-09T18:35:59.645Z,12.80
2019-05-09T18:38:33.244Z,12.80
2019-05-09T18:41:07.017Z,12.70
2019-05-09T18:43:34.642Z,12.70
2019-05-09T18:46:04.144Z,12.70
2019-05-09T18:48:33.570Z,12.70
2019-05-09T18:51:03.089Z,12.70
2019-05-09T18:53:32.511Z,12.70
2019-05-09T18:56:01.967Z,12.70
2019-05-09T18:58:35.824Z,12.60
2019-05-09T19:01:02.615Z,12.60
2019-05-09T19:03:32.153Z,12.60
2019-05-09T19:06:01.660Z,12.60
2019-05-09T19:08:31.496Z,12.60
2019-05-09T19:11:00.944Z,12.50
2019-05-09T19:13:30.382Z,12.50
2019-05-09T19:16:04.197Z,12.50
2019-05-09T19:18:47.390Z,12.50
2019-05-09T19:21:18.567Z,12.40
2019-05-09T19:23:48.060Z,12.40
2019-05-09T19:26:28.527Z,12.40
2019-05-09T19:28:58.069Z,12.30
2019-05-09T19:31:27.878Z,12.30
2019-05-09T19:33:57.418Z,12.20
2019-05-09T19:36:26.926Z,12.20
2019-05-09T19:38:56.355Z,12.20
2019-05-09T19:41:25.788Z,12.20
2019-05-09T19:43:55.216Z,12.20
2019-05-09T19:46:24.754Z,12.20
2019-05-09T19:48:54.194Z,12.20
2019-05-09T19:51:23.620Z,12.10
2019-05-09T19:53:53.123Z,12.10
2019-05-09T19:56:22.733Z,12.10
2019-05-09T19:58:52.196Z,12.10
2019-05-09T20:01:21.621Z,12.10
2019-05-09T20:03:51.042Z,12.10
2019-05-09T20:06:20.778Z,12.10
2019-05-09T20:08:50.285Z,12.10
2019-05-09T20:11:21.390Z,12.10
2019-05-09T20:13:57.903Z,12.10
2019-05-09T20:16:35.308Z,12.10
2019-05-09T20:19:04.800Z,12.10
2019-05-09T20:21:34.223Z,12.10
2019-05-09T20:24:03.787Z,12.10
2019-05-09T20:26:33.222Z,12.00
2019-05-09T20:29:02.753Z,12.00
2019-05-09T20:31:32.202Z,12.00
2019-05-09T20:34:01.635Z,12.00
2019-05-09T20:36:31.063Z,11.90
2019-05-09T20:39:00.764Z,11.90
2019-05-09T20:41:30.405Z,11.90
2019-05-09T20:43:59.994Z,11.90
2019-05-09T20:46:29.610Z,11.90
2019-05-09T20:48:59.401Z,11.90
2019-05-09T20:51:28.985Z,11.90
2019-05-09T20:53:58.913Z,11.80
2019-05-09T20:56:28.632Z,11.90
2019-05-09T20:58:58.251Z,11.90
2019-05-09T21:01:27.874Z,11.80
2019-05-09T21:04:00.200Z,11.80
2019-05-09T21:06:28.804Z,11.80
2019-05-09T21:08:59.968Z,11.80
2019-05-09T21:11:29.589Z,11.80
2019-05-09T21:13:59.525Z,11.80
2019-05-09T21:16:29.131Z,11.80
2019-05-09T21:18:58.793Z,11.80
2019-05-09T21:21:29.395Z,11.80
2019-05-09T21:23:59.009Z,11.80
2019-05-09T21:26:28.650Z,11.80
2019-05-09T21:28:58.248Z,11.80
2019-05-09T21:31:27.965Z,11.80
2019-05-09T21:33:59.280Z,11.80
2019-05-09T21:36:28.736Z,11.80
2019-05-09T21:38:58.236Z,11.80
2019-05-09T21:41:27.673Z,11.80
2019-05-09T21:43:57.108Z,11.80
2019-05-09T21:46:26.620Z,11.80
2019-05-09T21:48:56.051Z,11.80
2019-05-09T21:51:25.468Z,11.80
2019-05-09T21:53:54.976Z,11.80
2019-05-09T21:56:24.401Z,11.80
2019-05-09T21:58:54.141Z,11.80
2019-05-09T22:01:23.716Z,11.70
2019-05-09T22:03:53.190Z,11.70
2019-05-09T22:06:22.703Z,11.70
2019-05-09T22:08:52.138Z,11.70
2019-05-09T22:11:21.595Z,11.70
2019-05-09T22:13:51.000Z,11.70
2019-05-09T22:16:20.421Z,11.60
2019-05-09T22:18:49.854Z,11.60
2019-05-09T22:21:22.448Z,11.60
2019-05-09T22:23:56.567Z,11.50
2019-05-09T22:26:23.418Z,11.50
2019-05-09T22:28:52.826Z,11.50
2019-05-09T22:31:22.274Z,11.40
2019-05-09T22:33:51.703Z,11.40
2019-05-09T22:36:21.180Z,11.40
2019-05-09T22:38:50.607Z,11.40
2019-05-09T22:41:20.185Z,11.40
2019-05-09T22:43:49.710Z,11.40
2019-05-09T22:46:19.126Z,11.30
2019-05-09T22:48:48.544Z,11.30
2019-05-09T22:51:18.085Z,11.30
2019-05-09T22:53:47.507Z,11.30
2019-05-09T22:56:16.939Z,11.20
2019-05-09T22:58:46.504Z,11.20
2019-05-09T23:01:16.000Z,11.20
2019-05-09T23:03:45.723Z,11.10
2019-05-09T23:06:15.219Z,11.10
2019-05-09T23:08:44.738Z,11.10
2019-05-09T23:11:14.182Z,11.00
2019-05-09T23:13:52.506Z,11.00
2019-05-09T23:16:25.179Z,11.00
2019-05-09T23:18:55.500Z,11.00
2019-05-09T23:21:26.699Z,11.00
2019-05-09T23:24:06.665Z,11.10
2019-05-09T23:26:36.084Z,11.10
2019-05-09T23:29:05.657Z,11.10
2019-05-09T23:31:52.614Z,11.10
2019-05-09T23:34:22.093Z,11.10
2019-05-09T23:36:51.544Z,11.10
2019-05-09T23:39:25.031Z,11.10
2019-05-09T23:41:54.504Z,11.10
2019-05-09T23:44:24.018Z,11.10
2019-05-09T23:46:53.436Z,11.20
2019-05-09T23:49:22.922Z,11.20
2019-05-09T23:51:52.502Z,11.20
2019-05-09T23:54:46.415Z,11.20
2019-05-09T23:57:30.195Z,11.20
